UKV4136 EGPF-EGPR

Flight info

Callsign UKV4136
Flight time 0h 56m
Altitude 10000
Route CLYDE Q602 BRUCE DCT TIR
Aircraft DHC6/L-SDGRY/S

Departure

Time 2026-04-22 18:22
Airport Glasgow Airport (EGPF)

Arrival

Time 2026-04-22 19:18
Airport Barra Airport (EGPR)
Time Latitude Longitude Altitude Speed Heading
2026-04-22 18:01 55.86602 -4.42990 28 ft 0 kts 254°
2026-04-22 18:12 55.86605 -4.42972 28 ft 4 kts 253°
2026-04-22 18:12 55.86612 -4.42910 26 ft 4 kts 287°
2026-04-22 18:13 55.86601 -4.42896 26 ft 1 kts 344°
2026-04-22 18:13 55.86600 -4.42896 26 ft 0 kts 343°
2026-04-22 18:16 55.86601 -4.42896 26 ft 1 kts 344°
2026-04-22 18:16 55.86620 -4.42906 26 ft 5 kts 345°
2026-04-22 18:16 55.86664 -4.42927 26 ft 8 kts 344°
2026-04-22 18:16 55.86726 -4.42959 26 ft 10 kts 342°
2026-04-22 18:17 55.86793 -4.42991 26 ft 9 kts 340°
2026-04-22 18:17 55.86840 -4.43060 26 ft 9 kts 279°
2026-04-22 18:17 55.86821 -4.43194 26 ft 15 kts 252°
2026-04-22 18:17 55.86782 -4.43402 26 ft 19 kts 254°
2026-04-22 18:18 55.86755 -4.43573 26 ft 8 kts 255°
2026-04-22 18:18 55.86736 -4.43715 26 ft 15 kts 252°
2026-04-22 18:18 55.86660 -4.43888 29 ft 19 kts 229°
2026-04-22 18:18 55.86563 -4.44073 28 ft 21 kts 220°
2026-04-22 18:19 55.86465 -4.44248 26 ft 20 kts 228°
2026-04-22 18:19 55.86373 -4.44429 26 ft 19 kts 228°
2026-04-22 18:19 55.86288 -4.44595 24 ft 14 kts 232°
2026-04-22 18:19 55.86274 -4.44748 26 ft 12 kts 311°
2026-04-22 18:20 55.86328 -4.44818 25 ft 7 kts 310°
2026-04-22 18:20 55.86366 -4.44874 26 ft 8 kts 32°
2026-04-22 18:20 55.86379 -4.44852 27 ft 0 kts 47°
2026-04-22 18:21 55.86432 -4.44745 29 ft 41 kts 47°
2026-04-22 18:21 55.86763 -4.44139 53 ft 89 kts 46°
2026-04-22 18:21 55.87236 -4.43259 261 ft 102 kts 53°
2026-04-22 18:22 55.87695 -4.42276 532 ft 102 kts 54°
2026-04-22 18:22 55.88169 -4.41328 794 ft 105 kts 46°
2026-04-22 18:22 55.88764 -4.40532 1050 ft 108 kts 48°
2026-04-22 18:22 55.89264 -4.39501 1258 ft 113 kts 54°
2026-04-22 18:23 55.89807 -4.38454 1467 ft 116 kts 53°
2026-04-22 18:23 55.90353 -4.37418 1651 ft 117 kts 53°
2026-04-22 18:23 55.90916 -4.36365 1840 ft 117 kts 54°
2026-04-22 18:24 55.92039 -4.34264 2229 ft 118 kts 53°
2026-04-22 18:24 55.92631 -4.33252 2409 ft 124 kts 42°
2026-04-22 18:24 55.94380 -4.33957 2748 ft 156 kts 313°
2026-04-22 18:25 55.94732 -4.35762 2917 ft 158 kts 268°
2026-04-22 18:25 55.94575 -4.37019 3030 ft 153 kts 239°
2026-04-22 18:25 55.93714 -4.38876 3264 ft 147 kts 225°
2026-04-22 18:26 55.93167 -4.41815 3565 ft 150 kts 251°
2026-04-22 18:26 55.92927 -4.43615 3750 ft 149 kts 250°
2026-04-22 18:26 55.92692 -4.45420 3933 ft 149 kts 249°
2026-04-22 18:26 55.92463 -4.47198 4104 ft 149 kts 250°
2026-04-22 18:27 55.92231 -4.49011 4280 ft 147 kts 251°
2026-04-22 18:27 55.92001 -4.50776 4464 ft 145 kts 250°
2026-04-22 18:27 55.91771 -4.52532 4640 ft 146 kts 250°
2026-04-22 18:27 55.91541 -4.54297 4813 ft 146 kts 250°
2026-04-22 18:28 55.91312 -4.56072 5015 ft 147 kts 251°
2026-04-22 18:28 55.91249 -4.57871 5178 ft 152 kts 279°
2026-04-22 18:28 55.91649 -4.59629 5355 ft 154 kts 291°
2026-04-22 18:28 55.92052 -4.61397 5528 ft 154 kts 289°
2026-04-22 18:29 55.92450 -4.63176 5707 ft 155 kts 289°
2026-04-22 18:29 55.92846 -4.64954 5878 ft 153 kts 288°
2026-04-22 18:29 55.93229 -4.66706 6056 ft 151 kts 288°
2026-04-22 18:29 55.93606 -4.68434 6233 ft 149 kts 288°
2026-04-22 18:30 55.93987 -4.70162 6415 ft 151 kts 288°
2026-04-22 18:30 55.94868 -4.73585 6775 ft 152 kts 290°
2026-04-22 18:30 55.95312 -4.75305 6952 ft 153 kts 292°
2026-04-22 18:31 55.95765 -4.77022 7125 ft 153 kts 291°
2026-04-22 18:31 55.96222 -4.78745 7294 ft 154 kts 292°
2026-04-22 18:31 55.96689 -4.80491 7470 ft 153 kts 291°
2026-04-22 18:31 55.97140 -4.82182 7640 ft 153 kts 291°
2026-04-22 18:32 55.97596 -4.83901 7801 ft 154 kts 291°
2026-04-22 18:32 55.98053 -4.85637 7959 ft 155 kts 291°
2026-04-22 18:32 55.98518 -4.87380 8128 ft 155 kts 291°
2026-04-22 18:32 55.98980 -4.89126 8299 ft 155 kts 291°
2026-04-22 18:33 55.99446 -4.90872 8471 ft 156 kts 291°
2026-04-22 18:33 55.99913 -4.92638 8640 ft 158 kts 291°
2026-04-22 18:33 56.00372 -4.94380 8813 ft 157 kts 290°
2026-04-22 18:33 56.00842 -4.96151 8999 ft 158 kts 290°
2026-04-22 18:34 56.01309 -4.97920 9168 ft 157 kts 290°
2026-04-22 18:34 56.01775 -4.99680 9344 ft 156 kts 290°
2026-04-22 18:34 56.02234 -5.01424 9522 ft 155 kts 290°
2026-04-22 18:34 56.02695 -5.03160 9707 ft 154 kts 290°
2026-04-22 18:35 56.03624 -5.06699 10074 ft 151 kts 289°
2026-04-22 18:35 56.04069 -5.08399 10267 ft 152 kts 289°
2026-04-22 18:35 56.04522 -5.10120 10441 ft 153 kts 289°
2026-04-22 18:36 56.04987 -5.11893 10460 ft 163 kts 289°
2026-04-22 18:36 56.05479 -5.13769 10473 ft 169 kts 290°
2026-04-22 18:36 56.05988 -5.15705 10476 ft 174 kts 290°
2026-04-22 18:36 56.06507 -5.17683 10477 ft 177 kts 290°
2026-04-22 18:37 56.07030 -5.19691 10464 ft 179 kts 290°
2026-04-22 18:37 56.07557 -5.21706 10471 ft 178 kts 290°
2026-04-22 18:37 56.08082 -5.23708 10471 ft 178 kts 290°
2026-04-22 18:37 56.08603 -5.25712 10464 ft 178 kts 290°
2026-04-22 18:38 56.09127 -5.27716 10463 ft 178 kts 290°
2026-04-22 18:38 56.09655 -5.29733 10469 ft 179 kts 290°
2026-04-22 18:38 56.10183 -5.31758 10459 ft 179 kts 290°
2026-04-22 18:39 56.11227 -5.35795 10469 ft 179 kts 290°
2026-04-22 18:39 56.11752 -5.37816 10461 ft 179 kts 290°
2026-04-22 18:39 56.12278 -5.39839 10460 ft 179 kts 291°
2026-04-22 18:39 56.12803 -5.41858 10459 ft 178 kts 290°
2026-04-22 18:40 56.13322 -5.43873 10462 ft 178 kts 290°
2026-04-22 18:40 56.13842 -5.45883 10462 ft 178 kts 290°
2026-04-22 18:40 56.14362 -5.47891 10463 ft 177 kts 290°
2026-04-22 18:40 56.14878 -5.49890 10458 ft 177 kts 290°
2026-04-22 18:41 56.15394 -5.51893 10460 ft 177 kts 290°
2026-04-22 18:41 56.15910 -5.53890 10455 ft 176 kts 290°
2026-04-22 18:41 56.16420 -5.55883 10457 ft 176 kts 291°
2026-04-22 18:41 56.16933 -5.57872 10459 ft 176 kts 290°
2026-04-22 18:42 56.17444 -5.59860 10454 ft 175 kts 291°
2026-04-22 18:42 56.17956 -5.61848 10456 ft 175 kts 290°
2026-04-22 18:42 56.18465 -5.63835 10457 ft 175 kts 290°
2026-04-22 18:42 56.18975 -5.65822 10456 ft 175 kts 290°
2026-04-22 18:43 56.19483 -5.67807 10458 ft 175 kts 290°
2026-04-22 18:43 56.19991 -5.69793 10457 ft 175 kts 291°
2026-04-22 18:43 56.20499 -5.71779 10449 ft 175 kts 290°
2026-04-22 18:43 56.21006 -5.73763 10451 ft 175 kts 291°
2026-04-22 18:44 56.21512 -5.75747 10449 ft 175 kts 290°
2026-04-22 18:44 56.22017 -5.77725 10451 ft 175 kts 290°
2026-04-22 18:44 56.22521 -5.79709 10453 ft 174 kts 290°
2026-04-22 18:44 56.23027 -5.81690 10453 ft 174 kts 290°
2026-04-22 18:45 56.23529 -5.83669 10451 ft 174 kts 290°
2026-04-22 18:45 56.24033 -5.85651 10453 ft 174 kts 290°
2026-04-22 18:45 56.24535 -5.87627 10447 ft 174 kts 290°
2026-04-22 18:45 56.25036 -5.89604 10451 ft 174 kts 290°
2026-04-22 18:46 56.25536 -5.91577 10448 ft 174 kts 290°
2026-04-22 18:46 56.26036 -5.93554 10453 ft 174 kts 290°
2026-04-22 18:46 56.26536 -5.95532 10454 ft 173 kts 290°
2026-04-22 18:46 56.27036 -5.97506 10449 ft 173 kts 290°
2026-04-22 18:47 56.27534 -5.99481 10452 ft 173 kts 290°
2026-04-22 18:47 56.28033 -6.01457 10451 ft 173 kts 290°
2026-04-22 18:47 56.28529 -6.03429 10452 ft 173 kts 290°
2026-04-22 18:47 56.29028 -6.05407 10457 ft 174 kts 290°
2026-04-22 18:48 56.29526 -6.07393 10455 ft 174 kts 290°
2026-04-22 18:48 56.30027 -6.09379 10449 ft 175 kts 290°
2026-04-22 18:48 56.30529 -6.11382 10452 ft 176 kts 290°
2026-04-22 18:48 56.31033 -6.13390 10450 ft 176 kts 290°
2026-04-22 18:49 56.31536 -6.15397 10454 ft 176 kts 290°
2026-04-22 18:49 56.32038 -6.17396 10453 ft 176 kts 290°
2026-04-22 18:49 56.32539 -6.19400 10451 ft 175 kts 290°
2026-04-22 18:49 56.33037 -6.21395 10447 ft 174 kts 290°
2026-04-22 18:50 56.33535 -6.23386 10448 ft 174 kts 290°
2026-04-22 18:50 56.34026 -6.25358 10452 ft 175 kts 290°
2026-04-22 18:50 56.34526 -6.27358 10450 ft 175 kts 290°
2026-04-22 18:50 56.35023 -6.29353 10449 ft 174 kts 290°
2026-04-22 18:51 56.35518 -6.31346 10445 ft 174 kts 290°
2026-04-22 18:51 56.36011 -6.33339 10447 ft 174 kts 290°
2026-04-22 18:51 56.36507 -6.35330 10448 ft 174 kts 290°
2026-04-22 18:51 56.37003 -6.37320 10450 ft 174 kts 290°
2026-04-22 18:52 56.37495 -6.39314 10446 ft 174 kts 290°
2026-04-22 18:52 56.37989 -6.41303 10449 ft 174 kts 290°
2026-04-22 18:52 56.38488 -6.43326 10449 ft 174 kts 290°
2026-04-22 18:52 56.38983 -6.45325 10449 ft 174 kts 290°
2026-04-22 18:53 56.39470 -6.47290 10448 ft 174 kts 290°
2026-04-22 18:53 56.39969 -6.49312 10445 ft 174 kts 290°
2026-04-22 18:53 56.40461 -6.51305 10450 ft 174 kts 290°
2026-04-22 18:53 56.40945 -6.53272 10449 ft 174 kts 290°
2026-04-22 18:54 56.41442 -6.55262 10449 ft 174 kts 289°
2026-04-22 18:54 56.41929 -6.57257 10447 ft 174 kts 289°
2026-04-22 18:54 56.42417 -6.59253 10447 ft 174 kts 289°
2026-04-22 18:54 56.42907 -6.61250 10448 ft 174 kts 290°
2026-04-22 18:55 56.43402 -6.63273 10447 ft 174 kts 289°
2026-04-22 18:55 56.43886 -6.65246 10449 ft 174 kts 290°
2026-04-22 18:55 56.44376 -6.67248 10446 ft 174 kts 289°
2026-04-22 18:55 56.44867 -6.69250 10448 ft 174 kts 289°
2026-04-22 18:56 56.45355 -6.71251 10449 ft 174 kts 289°
2026-04-22 18:56 56.45844 -6.73252 10450 ft 174 kts 289°
2026-04-22 18:56 56.46333 -6.75256 10447 ft 174 kts 289°
2026-04-22 18:56 56.46820 -6.77260 10447 ft 174 kts 289°
2026-04-22 18:57 56.47309 -6.79264 10442 ft 174 kts 289°
2026-04-22 18:57 56.47796 -6.81266 10447 ft 174 kts 289°
2026-04-22 18:57 56.48284 -6.83272 10446 ft 174 kts 289°
2026-04-22 18:57 56.48771 -6.85279 10446 ft 174 kts 289°
2026-04-22 18:58 56.49296 -6.87246 10444 ft 175 kts 301°
2026-04-22 18:58 56.50235 -6.88656 10437 ft 178 kts 330°
2026-04-22 18:58 56.51334 -6.89707 10435 ft 179 kts 330°
2026-04-22 18:58 56.52417 -6.90815 10438 ft 179 kts 329°
2026-04-22 18:59 56.53496 -6.91943 10440 ft 179 kts 329°
2026-04-22 18:59 56.54572 -6.93079 10440 ft 179 kts 329°
2026-04-22 18:59 56.55648 -6.94210 10439 ft 179 kts 329°
2026-04-22 18:59 56.56723 -6.95345 10440 ft 179 kts 329°
2026-04-22 19:00 56.57088 -6.95729 10438 ft 179 kts 329°
2026-04-22 19:00 56.58874 -6.97615 10437 ft 179 kts 329°
2026-04-22 19:00 56.59948 -6.98749 10437 ft 178 kts 329°
2026-04-22 19:00 56.60674 -6.99516 10441 ft 179 kts 329°
2026-04-22 19:01 56.61744 -7.00649 10443 ft 178 kts 329°
2026-04-22 19:01 56.62815 -7.01782 10441 ft 178 kts 329°
2026-04-22 19:01 56.63884 -7.02915 10445 ft 178 kts 329°
2026-04-22 19:01 56.64952 -7.04045 10441 ft 178 kts 329°
2026-04-22 19:02 56.65989 -7.05240 10433 ft 175 kts 315°
2026-04-22 19:02 56.66680 -7.07064 10275 ft 177 kts 297°
2026-04-22 19:02 56.67320 -7.08995 10086 ft 179 kts 298°
2026-04-22 19:02 56.68056 -7.10797 9908 ft 181 kts 308°
2026-04-22 19:03 56.68883 -7.12579 9716 ft 182 kts 307°
2026-04-22 19:03 56.69700 -7.14341 9534 ft 183 kts 307°
2026-04-22 19:03 56.70521 -7.16111 9352 ft 183 kts 308°
2026-04-22 19:03 56.71343 -7.17880 9174 ft 183 kts 307°
2026-04-22 19:04 56.72165 -7.19650 9001 ft 183 kts 308°
2026-04-22 19:04 56.72977 -7.21395 8824 ft 183 kts 307°
2026-04-22 19:04 56.73801 -7.23162 8645 ft 183 kts 307°
2026-04-22 19:04 56.74624 -7.24928 8468 ft 183 kts 308°
2026-04-22 19:05 56.75447 -7.26691 8290 ft 181 kts 307°
2026-04-22 19:05 56.76257 -7.28423 8111 ft 178 kts 307°
2026-04-22 19:05 56.77055 -7.30130 7932 ft 176 kts 307°
2026-04-22 19:05 56.77847 -7.31823 7755 ft 175 kts 307°
2026-04-22 19:06 56.78636 -7.33507 7581 ft 174 kts 307°
2026-04-22 19:06 56.79423 -7.35185 7406 ft 174 kts 307°
2026-04-22 19:06 56.80207 -7.36855 7229 ft 173 kts 307°
2026-04-22 19:07 56.81777 -7.40194 6886 ft 173 kts 307°
2026-04-22 19:07 56.82559 -7.41860 6696 ft 173 kts 307°
2026-04-22 19:07 56.83339 -7.43525 6522 ft 172 kts 307°
2026-04-22 19:07 56.84115 -7.45195 6340 ft 172 kts 308°
2026-04-22 19:08 56.84887 -7.46867 6160 ft 172 kts 307°
2026-04-22 19:08 56.85650 -7.48545 5981 ft 172 kts 307°
2026-04-22 19:08 56.86413 -7.50223 5801 ft 172 kts 307°
2026-04-22 19:08 56.87174 -7.51908 5618 ft 172 kts 307°
2026-04-22 19:09 56.87929 -7.53590 5439 ft 171 kts 307°
2026-04-22 19:09 56.88677 -7.55272 5262 ft 170 kts 307°
2026-04-22 19:09 56.89420 -7.56953 5076 ft 170 kts 307°
2026-04-22 19:09 56.90159 -7.58636 4891 ft 169 kts 307°
2026-04-22 19:10 56.90882 -7.60295 4708 ft 165 kts 307°
2026-04-22 19:10 56.91592 -7.61935 4518 ft 164 kts 307°
2026-04-22 19:10 56.92293 -7.63567 4343 ft 163 kts 307°
2026-04-22 19:10 56.92990 -7.65194 4156 ft 162 kts 307°
2026-04-22 19:11 56.93680 -7.66825 3965 ft 161 kts 307°
2026-04-22 19:11 56.94367 -7.68456 3757 ft 162 kts 307°
2026-04-22 19:11 56.95052 -7.70107 3535 ft 163 kts 307°
2026-04-22 19:11 56.95778 -7.71692 3299 ft 162 kts 323°
2026-04-22 19:12 56.96814 -7.72086 3044 ft 151 kts 21°
2026-04-22 19:12 56.97537 -7.70914 2798 ft 137 kts 67°
2026-04-22 19:12 56.97991 -7.69385 2571 ft 137 kts 66°
2026-04-22 19:12 56.98455 -7.67863 2351 ft 137 kts 64°
2026-04-22 19:13 56.98892 -7.66458 2274 ft 111 kts 68°
2026-04-22 19:13 56.99228 -7.65343 2186 ft 97 kts 69°
2026-04-22 19:13 56.99502 -7.64230 2000 ft 95 kts 73°
2026-04-22 19:13 56.99751 -7.63124 1837 ft 92 kts 75°
2026-04-22 19:14 56.99960 -7.62014 1751 ft 90 kts 77°
2026-04-22 19:14 57.00149 -7.60920 1659 ft 90 kts 77°
2026-04-22 19:14 57.00334 -7.59828 1579 ft 89 kts 78°
2026-04-22 19:14 57.00501 -7.58743 1519 ft 87 kts 79°
2026-04-22 19:15 57.00603 -7.58024 1460 ft 89 kts 79°
2026-04-22 19:15 57.00814 -7.56526 1329 ft 90 kts 79°
2026-04-22 19:15 57.00961 -7.55414 1276 ft 89 kts 79°
2026-04-22 19:15 57.01095 -7.54291 1187 ft 91 kts 80°
2026-04-22 19:16 57.01222 -7.53156 1083 ft 91 kts 80°
2026-04-22 19:16 57.01344 -7.52011 968 ft 91 kts 80°
2026-04-22 19:16 57.01467 -7.50888 845 ft 89 kts 78°
2026-04-22 19:16 57.01612 -7.49783 714 ft 89 kts 76°
2026-04-22 19:17 57.01771 -7.48687 556 ft 89 kts 73°
2026-04-22 19:17 57.01939 -7.47598 388 ft 85 kts 72°
2026-04-22 19:17 57.02117 -7.46560 254 ft 86 kts 69°
2026-04-22 19:17 57.02310 -7.45535 98 ft 80 kts 68°
2026-04-22 19:18 57.02482 -7.44690 6 ft 59 kts 66°
2026-04-22 19:18 57.02545 -7.44297 2 ft 27 kts 77°
2026-04-22 19:18 57.02493 -7.44168 4 ft 14 kts 263°
2026-04-22 19:18 57.02506 -7.44370 4 ft 17 kts 273°
2026-04-22 19:19 57.02526 -7.44588 5 ft 18 kts 281°
2026-04-22 19:19 57.02538 -7.44808 8 ft 15 kts 247°
2026-04-22 19:19 57.02501 -7.44878 8 ft 0 kts 214°